• Join FlightAware (Why Join?)
  • Login
  • US Flag 
10:15PM EST


 

Airport Tracker/Info


-or-


 

Live Flight TrackerFlight Track Log ✈ FLG3729 ✈ 24-May-2013 ✈ KALB - KDTW

Flight Track Log - Related Links

Times and Time Zones

All times are in EDT time to prevent confusion due to time zone crossing. See the FLG3729 flight status page for this flight to view local times or setup timezone preferences in your user account.

Time Position Orientation Groundspeed Altitude Reporting Facility
EDT Latitude Longitude Course Direction KTS MPH feet Rate Location/Type
05:50AM 42.7694 -73.8061 304° West 166 191 1,200  Level Boston Center
05:50AM 42.7839 -73.8094 350° North 167 192 1,800 2,040 Climbing Boston Center
05:51AM 42.8314 -73.8528 326° Northwest 213 245 3,900 2,040 Climbing Boston Center
05:52AM 42.8911 -73.9053 327° Northwest 234 269 6,100 2,160 Climbing Boston Center
05:53AM 42.8268 -74.2875 281° West  Level FlightAware Approximate
05:53AM 42.9550 -73.9633 326° Northwest 262 302 8,400  Level Boston Center
05:54AM 42.8465 -74.4122 283° West  Level FlightAware Approximate
05:54AM 43.0186 -74.0275 324° Northwest 282 325 10,600  Level Boston Center
05:55AM 42.8680 -74.5361 304° West  Level FlightAware Approximate
05:55AM 43.0358 -74.1389 282° West 282 325 11,700  Level Boston Center
05:56AM 43.0444 -74.2639 275° West 323 372 13,500 1,680 Climbing Boston Center
05:57AM 43.0528 -74.3922 275° West 334 384 15,100 1,500 Climbing Boston Center
05:58AM 43.0628 -74.5203 276° West 340 391 16,600 1,200 Climbing Boston Center
05:59AM 43.0689 -74.6514 274° West 352 405 17,500 1,020 Climbing Boston Center
06:00AM 43.0808 -74.7853 277° West 357 411 18,700 960 Climbing Boston Center
06:01AM 43.0864 -74.9106 274° West 363 418 19,500 840 Climbing Boston Center
06:02AM 43.0939 -75.0447 274° West 363 418 20,400 720 Climbing Boston Center
06:03AM 43.1053 -75.1844 276° West 369 425 21,000 660 Climbing Boston Center
06:04AM 43.1119 -75.3328 274° West 374 430 21,800 720 Climbing Boston Center
06:05AM 43.1228 -75.4783 276° West 379 436 22,500 660 Climbing Boston Center
06:06AM 43.1308 -75.6381 274° West 385 443 23,200 660 Climbing Boston Center
06:07AM 43.1389 -75.7894 274° West 390 449 23,900 660 Climbing Boston Center
06:09AM 43.1539 -76.0747 274° West 370 426 25,200 600 Climbing Cleveland Center
06:10AM 43.1597 -76.2253 273° West 387 445 25,700 480 Climbing Cleveland Center
06:11AM 43.1464 -76.3742 263° West 392 451 26,200 480 Climbing Cleveland Center
06:12AM 43.1350 -76.5231 264° West 392 451 26,700 480 Climbing Cleveland Center
06:13AM 43.1214 -76.6719 263° West 392 451 27,200 480 Climbing Cleveland Center
06:14AM 43.1075 -76.8178 263° West 392 451 27,700 360 Climbing Cleveland Center
06:15AM 43.0936 -76.9694 263° West 392 451 28,000 120 Climbing Cleveland Center
06:16AM 43.0794 -77.1181 263° West 392 451 28,000  Level Cleveland Center
06:17AM 43.0650 -77.2667 262° West 392 451 28,000  Level Cleveland Center
06:18AM 43.0525 -77.4153 263° West 392 451 28,000  Level Cleveland Center
06:19AM 43.0378 -77.5694 263° West 398 458 28,000  Level Cleveland Center
06:20AM 43.0250 -77.7178 263° West 398 458 28,000  Level Cleveland Center
06:21AM 43.0097 -77.8689 262° West 403 464 28,000  Level Cleveland Center
06:22AM 42.9925 -78.0172 261° West 403 464 28,000  Level Cleveland Center
06:23AM 42.9808 -78.1567 264° West 410 472 28,000  Level Cleveland Center
06:24AM 42.9650 -78.3078 262° West 410 472 28,000  Level Cleveland Center
06:25AM 42.9492 -78.4558 262° West 410 472 28,000  Level Cleveland Center
06:26AM 42.9353 -78.6067 263° West 410 472 28,000  Level Cleveland Center
06:27AM 42.9147 -78.7575 260° West 410 472 28,000  Level Cleveland Center
06:28AM 42.8942 -78.9056 259° West 410 472 28,000  Level Cleveland Center
06:29AM 42.8731 -79.0533 259° West 410 472 28,000  Level Cleveland Center
06:30AM 42.8500 -79.2069 258° West 410 472 28,000  Level Cleveland Center
06:31AM 42.8289 -79.3575 259° West 410 472 28,000  Level Cleveland Center
06:32AM 42.8053 -79.5050 258° West 410 472 28,000  Level Cleveland Center
06:33AM 42.7836 -79.6581 259° West 410 472 28,000  Level Cleveland Center
06:34AM 42.7619 -79.8056 259° West 410 472 28,000  Level Cleveland Center
06:35AM 42.7503 -79.9642 264° West 410 472 28,000  Level Cleveland Center
06:36AM 42.7386 -80.1394 265° West 424 488 28,000  Level Cleveland Center
06:37AM 42.7328 -80.2950 267° West 424 488 28,000  Level Cleveland Center
06:38AM 42.7247 -80.4503 266° West 429 494 28,000  Level Cleveland Center
06:39AM 42.7186 -80.6114 267° West 422 486 28,000  Level Cleveland Center
06:40AM 42.7122 -80.7669 267° West 422 486 28,000  Level Cleveland Center
06:41AM 42.7036 -80.9250 266° West 422 486 28,000  Level Cleveland Center
06:42AM 42.6842 -81.0747 260° West 422 486 28,000  Level Cleveland Center
06:43AM 42.6647 -81.2325 261° West 422 486 28,000 -660 Level Cleveland Center
06:44AM 42.6469 -81.3878 261° West 422 486 26,700 -1,440 Descending Cleveland Center
06:45AM 42.6292 -81.5397 261° West 422 486 25,200 -1,380 Descending Cleveland Center
06:46AM 42.6133 -81.6722 261° West 412 474 24,000 -1,740 Descending Cleveland Center
06:47AM 42.5931 -81.8297 260° West 392 451 21,800 -2,100 Descending Cleveland Center
06:48AM 42.5769 -81.9761 262° West 392 451 19,800 -2,040 Descending Cleveland Center
06:49AM 42.5606 -82.1167 261° West 392 451 17,800 -1,860 Descending Cleveland Center
06:50AM 42.5417 -82.2569 260° West 392 451 16,100 -1,920 Descending Cleveland Center
06:51AM 42.5342 -82.3442 263° West 364 419 14,800 -1,920 Descending Cleveland Center
06:51AM 42.5253 -82.3919 256° West 387 445 14,200 -1,800 Descending Cleveland Center
06:52AM 42.5086 -82.5211 260° West 367 422 12,300 -1,140 Descending Cleveland Center
06:53AM 42.4731 -82.6439 249° West 353 406 12,000 -180 Descending Cleveland Center
06:54AM 42.4292 -82.7633 244° Southwest 353 406 12,000  Level Cleveland Center
06:55AM 42.3850 -82.8828 243° Southwest 358 412 12,000  Level Cleveland Center
06:56AM 42.3408 -83.0075 244° Southwest 363 418 12,000 -60 Level Cleveland Center
06:57AM 42.3075 -83.1072 246° West 276 318 11,900 -360 Descending Cleveland Center
06:58AM 42.2619 -83.1783 229° Southwest 276 318 11,400 -1,140 Descending Cleveland Center
06:59AM 42.1986 -83.2150 203° Southwest 282 325 9,800 -1,920 Descending Cleveland Center
07:00AM 42.1250 -83.2511 200° South 268 308 7,800 -2,040 Descending Cleveland Center
07:01AM 42.0694 -83.3050 216° Southwest 242 278 5,700 -1,980 Descending Cleveland Center
07:02AM 42.0508 -83.3822 252° West 192 221 3,700 -1,380 Descending Cleveland Center
07:03AM 42.0897 -83.4092 333° Northwest 161 185 2,800 -900 Descending Cleveland Center